sensor_id;sensor_type;location;lat;lon;timestamp;P1;durP1;ratioP1;P2;durP2;ratioP2
12768;SDS011;6448;48.916;8.990;2022-12-11T00:00:20;12.00;;;11.00;;
12768;SDS011;6448;48.916;8.990;2022-12-11T00:01:22;11.25;;;10.35;;
12768;SDS011;6448;48.916;8.990;2022-12-11T00:02:23;11.57;;;10.68;;
12768;SDS011;6448;48.916;8.990;2022-12-11T00:03:25;11.63;;;10.73;;
12768;SDS011;6448;48.916;8.990;2022-12-11T00:04:28;11.90;;;11.00;;
12768;SDS011;6448;48.916;8.990;2022-12-11T00:05:30;11.63;;;10.73;;
12768;SDS011;6448;48.916;8.990;2022-12-11T00:06:30;11.75;;;10.85;;
12768;SDS011;6448;48.916;8.990;2022-12-11T00:07:32;11.65;;;10.75;;
12768;SDS011;6448;48.916;8.990;2022-12-11T00:08:33;11.37;;;10.47;;
12768;SDS011;6448;48.916;8.990;2022-12-11T00:09:35;11.75;;;10.85;;
12768;SDS011;6448;48.916;8.990;2022-12-11T00:10:36;11.68;;;10.77;;
12768;SDS011;6448;48.916;8.990;2022-12-11T00:11:38;11.40;;;10.50;;
12768;SDS011;6448;48.916;8.990;2022-12-11T00:12:39;12.18;;;11.18;;
12768;SDS011;6448;48.916;8.990;2022-12-11T00:13:41;11.77;;;10.77;;
12768;SDS011;6448;48.916;8.990;2022-12-11T00:14:42;12.85;;;11.77;;
12768;SDS011;6448;48.916;8.990;2022-12-11T00:15:43;12.27;;;11.27;;
12768;SDS011;6448;48.916;8.990;2022-12-11T00:16:46;12.80;;;11.70;;
12768;SDS011;6448;48.916;8.990;2022-12-11T00:17:48;12.20;;;11.20;;
12768;SDS011;6448;48.916;8.990;2022-12-11T00:18:49;12.30;;;11.20;;
12768;SDS011;6448;48.916;8.990;2022-12-11T00:19:52;11.97;;;11.07;;
12768;SDS011;6448;48.916;8.990;2022-12-11T00:20:53;12.35;;;11.35;;
12768;SDS011;6448;48.916;8.990;2022-12-11T00:21:54;11.60;;;10.70;;
12768;SDS011;6448;48.916;8.990;2022-12-11T00:22:55;12.15;;;11.15;;
12768;SDS011;6448;48.916;8.990;2022-12-11T00:23:57;11.65;;;10.75;;
12768;SDS011;6448;48.916;8.990;2022-12-11T00:24:59;11.57;;;10.67;;
12768;SDS011;6448;48.916;8.990;2022-12-11T00:26:03;11.33;;;10.43;;
12768;SDS011;6448;48.916;8.990;2022-12-11T00:27:06;11.13;;;10.23;;
12768;SDS011;6448;48.916;8.990;2022-12-11T00:28:08;10.48;;;9.68;;
12768;SDS011;6448;48.916;8.990;2022-12-11T00:29:08;11.40;;;10.50;;
12768;SDS011;6448;48.916;8.990;2022-12-11T00:30:13;11.80;;;10.80;;
12768;SDS011;6448;48.916;8.990;2022-12-11T00:31:15;13.02;;;11.93;;
12768;SDS011;6448;48.916;8.990;2022-12-11T00:32:22;12.27;;;11.27;;
12768;SDS011;6448;48.916;8.990;2022-12-11T00:33:24;12.63;;;11.63;;
12768;SDS011;6448;48.916;8.990;2022-12-11T00:34:27;12.85;;;11.75;;
12768;SDS011;6448;48.916;8.990;2022-12-11T00:35:29;12.13;;;11.13;;
12768;SDS011;6448;48.916;8.990;2022-12-11T00:36:30;12.95;;;11.90;;
12768;SDS011;6448;48.916;8.990;2022-12-11T00:37:31;11.93;;;10.93;;
12768;SDS011;6448;48.916;8.990;2022-12-11T00:38:33;12.30;;;11.30;;
12768;SDS011;6448;48.916;8.990;2022-12-11T00:39:34;12.50;;;11.50;;
12768;SDS011;6448;48.916;8.990;2022-12-11T00:40:38;12.07;;;11.07;;
12768;SDS011;6448;48.916;8.990;2022-12-11T00:41:39;12.37;;;11.37;;
12768;SDS011;6448;48.916;8.990;2022-12-11T00:42:41;12.43;;;11.43;;
12768;SDS011;6448;48.916;8.990;2022-12-11T00:43:42;11.83;;;10.93;;
12768;SDS011;6448;48.916;8.990;2022-12-11T00:44:44;11.95;;;11.00;;
12768;SDS011;6448;48.916;8.990;2022-12-11T00:45:45;11.82;;;10.93;;
12768;SDS011;6448;48.916;8.990;2022-12-11T00:46:47;11.45;;;10.55;;
12768;SDS011;6448;48.916;8.990;2022-12-11T00:47:48;11.63;;;10.73;;
12768;SDS011;6448;48.916;8.990;2022-12-11T00:48:49;11.57;;;10.68;;
12768;SDS011;6448;48.916;8.990;2022-12-11T00:49:50;11.27;;;10.37;;
12768;SDS011;6448;48.916;8.990;2022-12-11T00:50:53;11.33;;;10.43;;
12768;SDS011;6448;48.916;8.990;2022-12-11T00:51:54;11.15;;;10.25;;
12768;SDS011;6448;48.916;8.990;2022-12-11T00:52:56;11.27;;;10.38;;
12768;SDS011;6448;48.916;8.990;2022-12-11T00:53:57;11.02;;;10.13;;
12768;SDS011;6448;48.916;8.990;2022-12-11T00:54:59;11.63;;;10.73;;
12768;SDS011;6448;48.916;8.990;2022-12-11T00:56:00;11.30;;;10.40;;
12768;SDS011;6448;48.916;8.990;2022-12-11T00:57:02;11.35;;;10.48;;
12768;SDS011;6448;48.916;8.990;2022-12-11T00:58:04;11.02;;;10.13;;
12768;SDS011;6448;48.916;8.990;2022-12-11T00:59:05;11.15;;;10.30;;
12768;SDS011;6448;48.916;8.990;2022-12-11T01:00:09;10.90;;;10.10;;
12768;SDS011;6448;48.916;8.990;2022-12-11T01:01:12;10.95;;;10.05;;
12768;SDS011;6448;48.916;8.990;2022-12-11T01:02:15;11.75;;;10.85;;
12768;SDS011;6448;48.916;8.990;2022-12-11T01:03:16;10.77;;;9.95;;
12768;SDS011;6448;48.916;8.990;2022-12-11T01:04:18;11.45;;;10.55;;
12768;SDS011;6448;48.916;8.990;2022-12-11T01:05:19;11.07;;;10.23;;
12768;SDS011;6448;48.916;8.990;2022-12-11T01:06:23;10.73;;;9.93;;
12768;SDS011;6448;48.916;8.990;2022-12-11T01:07:25;11.10;;;10.20;;
12768;SDS011;6448;48.916;8.990;2022-12-11T01:08:27;11.48;;;10.57;;
12768;SDS011;6448;48.916;8.990;2022-12-11T01:09:28;11.65;;;10.75;;
12768;SDS011;6448;48.916;8.990;2022-12-11T01:11:02;11.18;;;10.35;;
12768;SDS011;6448;48.916;8.990;2022-12-11T01:12:05;11.55;;;10.65;;
12768;SDS011;6448;48.916;8.990;2022-12-11T01:13:06;11.65;;;10.75;;
12768;SDS011;6448;48.916;8.990;2022-12-11T01:14:11;11.75;;;10.75;;
12768;SDS011;6448;48.916;8.990;2022-12-11T01:15:12;11.38;;;10.48;;
12768;SDS011;6448;48.916;8.990;2022-12-11T01:16:14;11.43;;;10.52;;
12768;SDS011;6448;48.916;8.990;2022-12-11T01:17:15;11.88;;;10.98;;
12768;SDS011;6448;48.916;8.990;2022-12-11T01:18:16;12.00;;;11.00;;
12768;SDS011;6448;48.916;8.990;2022-12-11T01:19:17;12.45;;;11.45;;
12768;SDS011;6448;48.916;8.990;2022-12-11T01:20:19;12.70;;;11.70;;
12768;SDS011;6448;48.916;8.990;2022-12-11T01:21:23;13.23;;;12.13;;
12768;SDS011;6448;48.916;8.990;2022-12-11T01:22:25;15.77;;;14.35;;
12768;SDS011;6448;48.916;8.990;2022-12-11T01:23:25;17.50;;;15.90;;
12768;SDS011;6448;48.916;8.990;2022-12-11T01:24:27;16.08;;;14.68;;
12768;SDS011;6448;48.916;8.990;2022-12-11T01:25:28;14.45;;;13.25;;
12768;SDS011;6448;48.916;8.990;2022-12-11T01:26:32;12.77;;;11.77;;
12768;SDS011;6448;48.916;8.990;2022-12-11T01:27:33;12.75;;;11.68;;
12768;SDS011;6448;48.916;8.990;2022-12-11T01:28:35;12.50;;;11.50;;
12768;SDS011;6448;48.916;8.990;2022-12-11T01:29:36;14.10;;;12.90;;
12768;SDS011;6448;48.916;8.990;2022-12-11T01:30:39;14.88;;;13.68;;
12768;SDS011;6448;48.916;8.990;2022-12-11T01:31:41;14.98;;;13.68;;
12768;SDS011;6448;48.916;8.990;2022-12-11T01:32:43;16.52;;;15.13;;
12768;SDS011;6448;48.916;8.990;2022-12-11T01:33:44;16.60;;;15.20;;
12768;SDS011;6448;48.916;8.990;2022-12-11T01:34:46;16.13;;;14.73;;
12768;SDS011;6448;48.916;8.990;2022-12-11T01:35:47;15.85;;;14.55;;
12768;SDS011;6448;48.916;8.990;2022-12-11T01:36:51;15.52;;;14.23;;
12768;SDS011;6448;48.916;8.990;2022-12-11T01:37:53;15.30;;;14.00;;
12768;SDS011;6448;48.916;8.990;2022-12-11T01:38:55;14.10;;;12.93;;
12768;SDS011;6448;48.916;8.990;2022-12-11T01:39:56;15.23;;;14.02;;
12768;SDS011;6448;48.916;8.990;2022-12-11T01:40:58;15.33;;;14.03;;
12768;SDS011;6448;48.916;8.990;2022-12-11T01:41:59;15.60;;;14.30;;
12768;SDS011;6448;48.916;8.990;2022-12-11T01:43:02;15.48;;;14.18;;
12768;SDS011;6448;48.916;8.990;2022-12-11T01:44:04;14.50;;;13.30;;
12768;SDS011;6448;48.916;8.990;2022-12-11T01:46:29;12.57;;;11.57;;
12768;SDS011;6448;48.916;8.990;2022-12-11T01:47:32;12.50;;;11.50;;
12768;SDS011;6448;48.916;8.990;2022-12-11T01:48:32;13.52;;;12.43;;
12768;SDS011;6448;48.916;8.990;2022-12-11T01:49:34;13.32;;;12.23;;
12768;SDS011;6448;48.916;8.990;2022-12-11T01:50:40;13.35;;;12.30;;
12768;SDS011;6448;48.916;8.990;2022-12-11T01:51:46;13.18;;;12.07;;
12768;SDS011;6448;48.916;8.990;2022-12-11T01:52:52;12.57;;;11.57;;
12768;SDS011;6448;48.916;8.990;2022-12-11T01:53:54;12.18;;;11.18;;
12768;SDS011;6448;48.916;8.990;2022-12-11T01:55:00;12.88;;;11.88;;
12768;SDS011;6448;48.916;8.990;2022-12-11T01:56:02;12.82;;;11.82;;
12768;SDS011;6448;48.916;8.990;2022-12-11T01:57:06;12.13;;;11.13;;
12768;SDS011;6448;48.916;8.990;2022-12-11T01:58:08;12.13;;;11.20;;
12768;SDS011;6448;48.916;8.990;2022-12-11T01:59:11;12.00;;;11.10;;
12768;SDS011;6448;48.916;8.990;2022-12-11T02:00:15;12.27;;;11.27;;
12768;SDS011;6448;48.916;8.990;2022-12-11T02:01:19;12.27;;;11.27;;
12768;SDS011;6448;48.916;8.990;2022-12-11T02:02:27;11.88;;;10.98;;
12768;SDS011;6448;48.916;8.990;2022-12-11T02:03:29;12.07;;;11.07;;
12768;SDS011;6448;48.916;8.990;2022-12-11T02:04:32;11.23;;;10.32;;
12768;SDS011;6448;48.916;8.990;2022-12-11T02:05:35;11.27;;;10.38;;
12768;SDS011;6448;48.916;8.990;2022-12-11T02:06:38;11.32;;;10.32;;
12768;SDS011;6448;48.916;8.990;2022-12-11T02:07:41;11.35;;;10.45;;
12768;SDS011;6448;48.916;8.990;2022-12-11T02:08:47;11.55;;;10.60;;
12768;SDS011;6448;48.916;8.990;2022-12-11T02:09:48;11.52;;;10.63;;
12768;SDS011;6448;48.916;8.990;2022-12-11T02:10:54;11.50;;;10.60;;
12768;SDS011;6448;48.916;8.990;2022-12-11T02:12:06;12.52;;;11.52;;
12768;SDS011;6448;48.916;8.990;2022-12-11T02:13:17;12.02;;;11.02;;
12768;SDS011;6448;48.916;8.990;2022-12-11T02:14:24;11.07;;;10.18;;
12768;SDS011;6448;48.916;8.990;2022-12-11T02:15:32;11.48;;;10.57;;
12768;SDS011;6448;48.916;8.990;2022-12-11T02:16:37;11.65;;;10.75;;
12768;SDS011;6448;48.916;8.990;2022-12-11T02:17:45;11.18;;;10.27;;
12768;SDS011;6448;48.916;8.990;2022-12-11T02:18:52;11.25;;;10.35;;
12768;SDS011;6448;48.916;8.990;2022-12-11T02:20:02;11.05;;;10.15;;
12768;SDS011;6448;48.916;8.990;2022-12-11T02:21:09;10.82;;;9.98;;
12768;SDS011;6448;48.916;8.990;2022-12-11T02:22:21;10.87;;;10.07;;
12768;SDS011;6448;48.916;8.990;2022-12-11T02:23:33;10.45;;;9.65;;
12768;SDS011;6448;48.916;8.990;2022-12-11T02:24:54;10.75;;;9.85;;
12768;SDS011;6448;48.916;8.990;2022-12-11T02:26:05;10.43;;;9.63;;
12768;SDS011;6448;48.916;8.990;2022-12-11T02:27:22;10.27;;;9.48;;
12768;SDS011;6448;48.916;8.990;2022-12-11T02:28:32;10.23;;;9.43;;
12768;SDS011;6448;48.916;8.990;2022-12-11T02:29:38;10.50;;;9.60;;
12768;SDS011;6448;48.916;8.990;2022-12-11T02:30:45;9.50;;;8.80;;
12768;SDS011;6448;48.916;8.990;2022-12-11T02:31:50;10.50;;;9.70;;
12768;SDS011;6448;48.916;8.990;2022-12-11T02:32:57;10.40;;;9.60;;
12768;SDS011;6448;48.916;8.990;2022-12-11T02:34:00;10.35;;;9.52;;
12768;SDS011;6448;48.916;8.990;2022-12-11T02:35:07;10.20;;;9.40;;
12768;SDS011;6448;48.916;8.990;2022-12-11T02:36:12;10.80;;;10.00;;
12768;SDS011;6448;48.916;8.990;2022-12-11T02:37:17;9.95;;;9.15;;
12768;SDS011;6448;48.916;8.990;2022-12-11T02:38:23;10.30;;;9.50;;
12768;SDS011;6448;48.916;8.990;2022-12-11T02:39:34;10.40;;;9.60;;
12768;SDS011;6448;48.916;8.990;2022-12-11T02:40:42;10.15;;;9.35;;
12768;SDS011;6448;48.916;8.990;2022-12-11T02:41:46;10.40;;;9.60;;
12768;SDS011;6448;48.916;8.990;2022-12-11T02:42:50;10.15;;;9.35;;
12768;SDS011;6448;48.916;8.990;2022-12-11T02:43:55;10.07;;;9.30;;
12768;SDS011;6448;48.916;8.990;2022-12-11T02:44:58;9.88;;;9.07;;
12768;SDS011;6448;48.916;8.990;2022-12-11T02:46:00;10.40;;;9.60;;
12768;SDS011;6448;48.916;8.990;2022-12-11T02:47:06;10.52;;;9.73;;
12768;SDS011;6448;48.916;8.990;2022-12-11T02:48:10;10.65;;;9.85;;
12768;SDS011;6448;48.916;8.990;2022-12-11T02:49:13;10.95;;;10.05;;
12768;SDS011;6448;48.916;8.990;2022-12-11T02:50:16;11.15;;;10.25;;
12768;SDS011;6448;48.916;8.990;2022-12-11T02:51:21;11.40;;;10.50;;
12768;SDS011;6448;48.916;8.990;2022-12-11T02:52:25;11.55;;;10.65;;
12768;SDS011;6448;48.916;8.990;2022-12-11T02:53:30;11.52;;;10.63;;
12768;SDS011;6448;48.916;8.990;2022-12-11T02:54:34;11.70;;;10.80;;
12768;SDS011;6448;48.916;8.990;2022-12-11T02:55:39;11.63;;;10.73;;
12768;SDS011;6448;48.916;8.990;2022-12-11T02:56:42;11.40;;;10.50;;
12768;SDS011;6448;48.916;8.990;2022-12-11T02:57:47;11.38;;;10.48;;
12768;SDS011;6448;48.916;8.990;2022-12-11T02:58:53;12.02;;;11.02;;
12768;SDS011;6448;48.916;8.990;2022-12-11T03:00:00;11.60;;;10.70;;
12768;SDS011;6448;48.916;8.990;2022-12-11T03:01:01;12.30;;;11.30;;
12768;SDS011;6448;48.916;8.990;2022-12-11T03:02:03;11.68;;;10.77;;
12768;SDS011;6448;48.916;8.990;2022-12-11T03:03:04;11.88;;;10.95;;
12768;SDS011;6448;48.916;8.990;2022-12-11T03:04:06;12.15;;;11.23;;
12768;SDS011;6448;48.916;8.990;2022-12-11T03:05:08;12.60;;;11.60;;
12768;SDS011;6448;48.916;8.990;2022-12-11T03:06:12;12.60;;;11.60;;
12768;SDS011;6448;48.916;8.990;2022-12-11T03:07:18;12.07;;;11.15;;
12768;SDS011;6448;48.916;8.990;2022-12-11T03:08:23;12.32;;;11.32;;
12768;SDS011;6448;48.916;8.990;2022-12-11T03:09:24;12.48;;;11.48;;
12768;SDS011;6448;48.916;8.990;2022-12-11T03:10:27;12.52;;;11.52;;
12768;SDS011;6448;48.916;8.990;2022-12-11T03:11:28;12.57;;;11.57;;
12768;SDS011;6448;48.916;8.990;2022-12-11T03:12:30;12.75;;;11.75;;
12768;SDS011;6448;48.916;8.990;2022-12-11T03:13:33;13.30;;;12.20;;
12768;SDS011;6448;48.916;8.990;2022-12-11T03:14:36;13.07;;;11.98;;
12768;SDS011;6448;48.916;8.990;2022-12-11T03:15:40;12.93;;;11.90;;
12768;SDS011;6448;48.916;8.990;2022-12-11T03:16:51;12.48;;;11.48;;
12768;SDS011;6448;48.916;8.990;2022-12-11T03:17:59;12.77;;;11.73;;
12768;SDS011;6448;48.916;8.990;2022-12-11T03:19:09;12.95;;;11.95;;
12768;SDS011;6448;48.916;8.990;2022-12-11T03:20:16;13.20;;;12.10;;
12768;SDS011;6448;48.916;8.990;2022-12-11T03:21:30;12.63;;;11.63;;
12768;SDS011;6448;48.916;8.990;2022-12-11T03:22:38;13.27;;;12.18;;
12768;SDS011;6448;48.916;8.990;2022-12-11T03:23:46;14.02;;;12.82;;
12768;SDS011;6448;48.916;8.990;2022-12-11T03:24:52;13.40;;;12.30;;
12768;SDS011;6448;48.916;8.990;2022-12-11T03:26:01;13.83;;;12.73;;
12768;SDS011;6448;48.916;8.990;2022-12-11T03:27:05;13.70;;;12.60;;
12768;SDS011;6448;48.916;8.990;2022-12-11T03:28:17;13.55;;;12.48;;
12768;SDS011;6448;48.916;8.990;2022-12-11T03:29:20;13.43;;;12.32;;
12768;SDS011;6448;48.916;8.990;2022-12-11T03:30:27;13.43;;;12.32;;
12768;SDS011;6448;48.916;8.990;2022-12-11T03:31:30;13.77;;;12.68;;
12768;SDS011;6448;48.916;8.990;2022-12-11T03:32:42;13.52;;;12.43;;
12768;SDS011;6448;48.916;8.990;2022-12-11T03:33:46;13.98;;;12.88;;
12768;SDS011;6448;48.916;8.990;2022-12-11T03:34:54;13.98;;;12.88;;
12768;SDS011;6448;48.916;8.990;2022-12-11T03:36:00;14.05;;;12.85;;
12768;SDS011;6448;48.916;8.990;2022-12-11T03:37:07;14.57;;;13.38;;
12768;SDS011;6448;48.916;8.990;2022-12-11T03:38:10;14.85;;;13.65;;
12768;SDS011;6448;48.916;8.990;2022-12-11T03:39:18;14.10;;;13.00;;
12768;SDS011;6448;48.916;8.990;2022-12-11T03:40:25;13.95;;;12.80;;
12768;SDS011;6448;48.916;8.990;2022-12-11T03:41:30;13.93;;;12.82;;
12768;SDS011;6448;48.916;8.990;2022-12-11T03:42:33;14.15;;;13.05;;
12768;SDS011;6448;48.916;8.990;2022-12-11T03:43:36;14.30;;;13.17;;
12768;SDS011;6448;48.916;8.990;2022-12-11T03:44:39;13.10;;;12.07;;
12768;SDS011;6448;48.916;8.990;2022-12-11T03:45:47;13.90;;;12.75;;
12768;SDS011;6448;48.916;8.990;2022-12-11T03:46:50;13.10;;;12.00;;
12768;SDS011;6448;48.916;8.990;2022-12-11T03:47:54;13.00;;;12.00;;
12768;SDS011;6448;48.916;8.990;2022-12-11T03:49:00;13.98;;;12.88;;
12768;SDS011;6448;48.916;8.990;2022-12-11T03:50:05;13.80;;;12.70;;
12768;SDS011;6448;48.916;8.990;2022-12-11T03:51:09;13.40;;;12.32;;
12768;SDS011;6448;48.916;8.990;2022-12-11T03:52:11;13.80;;;12.70;;
12768;SDS011;6448;48.916;8.990;2022-12-11T03:53:14;13.77;;;12.60;;
12768;SDS011;6448;48.916;8.990;2022-12-11T03:54:16;13.13;;;12.13;;
12768;SDS011;6448;48.916;8.990;2022-12-11T03:55:18;13.38;;;12.27;;
12768;SDS011;6448;48.916;8.990;2022-12-11T03:56:21;13.05;;;12.02;;
12768;SDS011;6448;48.916;8.990;2022-12-11T03:57:28;13.40;;;12.30;;
12768;SDS011;6448;48.916;8.990;2022-12-11T03:58:30;13.15;;;12.05;;
12768;SDS011;6448;48.916;8.990;2022-12-11T03:59:32;13.32;;;12.32;;
12768;SDS011;6448;48.916;8.990;2022-12-11T04:00:33;12.55;;;11.55;;
12768;SDS011;6448;48.916;8.990;2022-12-11T04:01:36;13.18;;;12.07;;
12768;SDS011;6448;48.916;8.990;2022-12-11T04:02:38;13.07;;;11.98;;
12768;SDS011;6448;48.916;8.990;2022-12-11T04:03:39;12.93;;;11.93;;
12768;SDS011;6448;48.916;8.990;2022-12-11T04:04:40;12.73;;;11.73;;
12768;SDS011;6448;48.916;8.990;2022-12-11T04:05:44;12.93;;;11.82;;
12768;SDS011;6448;48.916;8.990;2022-12-11T04:06:46;12.68;;;11.68;;
12768;SDS011;6448;48.916;8.990;2022-12-11T04:07:47;12.32;;;11.32;;
12768;SDS011;6448;48.916;8.990;2022-12-11T04:08:48;12.57;;;11.57;;
12768;SDS011;6448;48.916;8.990;2022-12-11T04:09:50;12.15;;;11.15;;
12768;SDS011;6448;48.916;8.990;2022-12-11T04:10:51;12.18;;;11.18;;
12768;SDS011;6448;48.916;8.990;2022-12-11T04:12:13;11.40;;;10.50;;
12768;SDS011;6448;48.916;8.990;2022-12-11T04:13:13;11.10;;;10.27;;
12768;SDS011;6448;48.916;8.990;2022-12-11T04:14:15;12.10;;;11.18;;
12768;SDS011;6448;48.916;8.990;2022-12-11T04:15:35;12.18;;;11.18;;
12768;SDS011;6448;48.916;8.990;2022-12-11T04:16:37;12.07;;;11.18;;
12768;SDS011;6448;48.916;8.990;2022-12-11T04:17:38;11.50;;;10.60;;
12768;SDS011;6448;48.916;8.990;2022-12-11T04:18:57;10.90;;;10.10;;
12768;SDS011;6448;48.916;8.990;2022-12-11T04:20:17;10.93;;;10.07;;
12768;SDS011;6448;48.916;8.990;2022-12-11T04:21:37;10.60;;;9.80;;
12768;SDS011;6448;48.916;8.990;2022-12-11T04:22:56;10.70;;;9.90;;
12768;SDS011;6448;48.916;8.990;2022-12-11T04:24:15;10.40;;;9.60;;
12768;SDS011;6448;48.916;8.990;2022-12-11T04:25:17;10.45;;;9.65;;
12768;SDS011;6448;48.916;8.990;2022-12-11T04:26:18;10.73;;;9.93;;
12768;SDS011;6448;48.916;8.990;2022-12-11T04:27:21;10.45;;;9.65;;
12768;SDS011;6448;48.916;8.990;2022-12-11T04:28:37;10.10;;;9.30;;
12768;SDS011;6448;48.916;8.990;2022-12-11T04:29:39;10.32;;;9.52;;
12768;SDS011;6448;48.916;8.990;2022-12-11T04:30:40;10.43;;;9.63;;
12768;SDS011;6448;48.916;8.990;2022-12-11T04:31:48;10.60;;;9.80;;
12768;SDS011;6448;48.916;8.990;2022-12-11T04:32:50;10.55;;;9.75;;
12768;SDS011;6448;48.916;8.990;2022-12-11T04:33:53;10.32;;;9.52;;
12768;SDS011;6448;48.916;8.990;2022-12-11T04:34:53;9.70;;;9.00;;
12768;SDS011;6448;48.916;8.990;2022-12-11T04:35:56;10.65;;;9.75;;
12768;SDS011;6448;48.916;8.990;2022-12-11T04:36:57;9.88;;;9.15;;
12768;SDS011;6448;48.916;8.990;2022-12-11T04:37:59;10.30;;;9.50;;
12768;SDS011;6448;48.916;8.990;2022-12-11T04:39:00;10.15;;;9.35;;
12768;SDS011;6448;48.916;8.990;2022-12-11T04:40:02;9.73;;;9.00;;
12768;SDS011;6448;48.916;8.990;2022-12-11T04:41:05;9.85;;;9.13;;
12768;SDS011;6448;48.916;8.990;2022-12-11T04:42:08;10.27;;;9.48;;
12768;SDS011;6448;48.916;8.990;2022-12-11T04:43:09;10.27;;;9.48;;
12768;SDS011;6448;48.916;8.990;2022-12-11T04:44:11;10.02;;;9.23;;
12768;SDS011;6448;48.916;8.990;2022-12-11T04:45:12;9.82;;;9.02;;
12768;SDS011;6448;48.916;8.990;2022-12-11T04:46:15;9.48;;;8.77;;
12768;SDS011;6448;48.916;8.990;2022-12-11T04:47:18;10.35;;;9.55;;
12768;SDS011;6448;48.916;8.990;2022-12-11T04:48:20;9.75;;;8.95;;
12768;SDS011;6448;48.916;8.990;2022-12-11T04:49:21;9.80;;;9.02;;
12768;SDS011;6448;48.916;8.990;2022-12-11T04:50:23;9.90;;;9.10;;
12768;SDS011;6448;48.916;8.990;2022-12-11T04:51:25;9.80;;;9.00;;
12768;SDS011;6448;48.916;8.990;2022-12-11T04:52:27;9.60;;;8.90;;
12768;SDS011;6448;48.916;8.990;2022-12-11T04:53:28;10.20;;;9.40;;
12768;SDS011;6448;48.916;8.990;2022-12-11T04:54:30;9.33;;;8.63;;
12768;SDS011;6448;48.916;8.990;2022-12-11T04:55:31;9.65;;;8.90;;
12768;SDS011;6448;48.916;8.990;2022-12-11T04:56:33;9.68;;;8.88;;
12768;SDS011;6448;48.916;8.990;2022-12-11T04:57:34;9.80;;;9.00;;
12768;SDS011;6448;48.916;8.990;2022-12-11T04:58:36;9.63;;;8.93;;
12768;SDS011;6448;48.916;8.990;2022-12-11T04:59:37;9.98;;;9.18;;
12768;SDS011;6448;48.916;8.990;2022-12-11T05:00:39;9.75;;;8.98;;
12768;SDS011;6448;48.916;8.990;2022-12-11T05:01:40;9.73;;;9.00;;
12768;SDS011;6448;48.916;8.990;2022-12-11T05:02:43;9.75;;;9.05;;
12768;SDS011;6448;48.916;8.990;2022-12-11T05:03:44;9.95;;;9.15;;
12768;SDS011;6448;48.916;8.990;2022-12-11T05:04:46;11.07;;;10.18;;
12768;SDS011;6448;48.916;8.990;2022-12-11T05:05:47;11.70;;;10.80;;
12768;SDS011;6448;48.916;8.990;2022-12-11T05:06:50;11.93;;;11.00;;
12768;SDS011;6448;48.916;8.990;2022-12-11T05:07:51;11.70;;;10.80;;
12768;SDS011;6448;48.916;8.990;2022-12-11T05:08:53;12.30;;;11.30;;
12768;SDS011;6448;48.916;8.990;2022-12-11T05:09:53;12.20;;;11.20;;
12768;SDS011;6448;48.916;8.990;2022-12-11T05:10:55;11.85;;;10.85;;
12768;SDS011;6448;48.916;8.990;2022-12-11T05:11:56;12.35;;;11.35;;
12768;SDS011;6448;48.916;8.990;2022-12-11T05:12:58;11.63;;;10.65;;
12768;SDS011;6448;48.916;8.990;2022-12-11T05:13:59;12.15;;;11.15;;
12768;SDS011;6448;48.916;8.990;2022-12-11T05:15:01;11.75;;;10.85;;
12768;SDS011;6448;48.916;8.990;2022-12-11T05:16:03;12.30;;;11.30;;
12768;SDS011;6448;48.916;8.990;2022-12-11T05:17:06;12.57;;;11.57;;
12768;SDS011;6448;48.916;8.990;2022-12-11T05:18:09;12.15;;;11.15;;
12768;SDS011;6448;48.916;8.990;2022-12-11T05:19:10;12.10;;;11.10;;
12768;SDS011;6448;48.916;8.990;2022-12-11T05:20:12;11.88;;;10.98;;
12768;SDS011;6448;48.916;8.990;2022-12-11T05:21:13;11.85;;;10.95;;
12768;SDS011;6448;48.916;8.990;2022-12-11T05:22:16;11.45;;;10.55;;
12768;SDS011;6448;48.916;8.990;2022-12-11T05:23:18;11.27;;;10.38;;
12768;SDS011;6448;48.916;8.990;2022-12-11T05:24:19;11.88;;;10.98;;
12768;SDS011;6448;48.916;8.990;2022-12-11T05:25:20;11.90;;;10.98;;
12768;SDS011;6448;48.916;8.990;2022-12-11T05:26:22;11.52;;;10.63;;
12768;SDS011;6448;48.916;8.990;2022-12-11T05:27:23;12.27;;;11.27;;
12768;SDS011;6448;48.916;8.990;2022-12-11T05:28:26;12.05;;;11.07;;
12768;SDS011;6448;48.916;8.990;2022-12-11T05:29:27;11.77;;;10.88;;
12768;SDS011;6448;48.916;8.990;2022-12-11T05:30:29;12.02;;;11.07;;
12768;SDS011;6448;48.916;8.990;2022-12-11T05:31:31;12.48;;;11.48;;
12768;SDS011;6448;48.916;8.990;2022-12-11T05:32:33;11.88;;;10.95;;
12768;SDS011;6448;48.916;8.990;2022-12-11T05:33:35;12.60;;;11.60;;
12768;SDS011;6448;48.916;8.990;2022-12-11T05:34:37;12.40;;;11.40;;
12768;SDS011;6448;48.916;8.990;2022-12-11T05:35:38;12.27;;;11.27;;
12768;SDS011;6448;48.916;8.990;2022-12-11T05:36:46;13.07;;;12.00;;
12768;SDS011;6448;48.916;8.990;2022-12-11T05:37:48;13.70;;;12.60;;
12768;SDS011;6448;48.916;8.990;2022-12-11T05:38:49;13.70;;;12.60;;
12768;SDS011;6448;48.916;8.990;2022-12-11T05:39:51;13.10;;;12.07;;
12768;SDS011;6448;48.916;8.990;2022-12-11T05:40:55;13.20;;;12.10;;
12768;SDS011;6448;48.916;8.990;2022-12-11T05:41:58;13.02;;;11.93;;
12768;SDS011;6448;48.916;8.990;2022-12-11T05:42:58;13.23;;;12.13;;
12768;SDS011;6448;48.916;8.990;2022-12-11T05:44:00;12.18;;;11.18;;
12768;SDS011;6448;48.916;8.990;2022-12-11T05:45:01;13.43;;;12.32;;
12768;SDS011;6448;48.916;8.990;2022-12-11T05:46:04;13.65;;;12.55;;
12768;SDS011;6448;48.916;8.990;2022-12-11T05:47:06;13.85;;;12.68;;
12768;SDS011;6448;48.916;8.990;2022-12-11T05:48:08;13.02;;;11.93;;
12768;SDS011;6448;48.916;8.990;2022-12-11T05:49:10;13.65;;;12.55;;
12768;SDS011;6448;48.916;8.990;2022-12-11T05:50:13;13.13;;;12.02;;
12768;SDS011;6448;48.916;8.990;2022-12-11T05:51:15;13.48;;;12.38;;
12768;SDS011;6448;48.916;8.990;2022-12-11T05:52:17;13.25;;;12.15;;
12768;SDS011;6448;48.916;8.990;2022-12-11T05:53:18;13.52;;;12.32;;
12768;SDS011;6448;48.916;8.990;2022-12-11T05:54:20;13.68;;;12.57;;
12768;SDS011;6448;48.916;8.990;2022-12-11T05:55:22;13.07;;;12.02;;
12768;SDS011;6448;48.916;8.990;2022-12-11T05:56:23;14.23;;;13.02;;
12768;SDS011;6448;48.916;8.990;2022-12-11T05:57:26;13.63;;;12.52;;
12768;SDS011;6448;48.916;8.990;2022-12-11T05:58:27;13.27;;;12.18;;
12768;SDS011;6448;48.916;8.990;2022-12-11T05:59:29;13.20;;;12.10;;
12768;SDS011;6448;48.916;8.990;2022-12-11T06:00:30;14.03;;;12.93;;
12768;SDS011;6448;48.916;8.990;2022-12-11T06:01:32;13.23;;;12.23;;
12768;SDS011;6448;48.916;8.990;2022-12-11T06:02:35;13.60;;;12.50;;
12768;SDS011;6448;48.916;8.990;2022-12-11T06:03:36;13.38;;;12.27;;
12768;SDS011;6448;48.916;8.990;2022-12-11T06:04:39;12.65;;;11.65;;
12768;SDS011;6448;48.916;8.990;2022-12-11T06:05:40;13.43;;;12.32;;
12768;SDS011;6448;48.916;8.990;2022-12-11T06:06:41;12.80;;;11.80;;
12768;SDS011;6448;48.916;8.990;2022-12-11T06:07:43;13.77;;;12.68;;
12768;SDS011;6448;48.916;8.990;2022-12-11T06:08:44;13.02;;;12.02;;
12768;SDS011;6448;48.916;8.990;2022-12-11T06:09:46;14.20;;;13.00;;
12768;SDS011;6448;48.916;8.990;2022-12-11T06:10:48;14.25;;;13.07;;
12768;SDS011;6448;48.916;8.990;2022-12-11T06:11:49;14.00;;;12.90;;
12768;SDS011;6448;48.916;8.990;2022-12-11T06:12:51;14.35;;;13.15;;
12768;SDS011;6448;48.916;8.990;2022-12-11T06:13:52;14.60;;;13.40;;
12768;SDS011;6448;48.916;8.990;2022-12-11T06:14:54;14.40;;;13.20;;
12768;SDS011;6448;48.916;8.990;2022-12-11T06:15:58;14.03;;;12.90;;
12768;SDS011;6448;48.916;8.990;2022-12-11T06:17:00;14.40;;;13.20;;
12768;SDS011;6448;48.916;8.990;2022-12-11T06:18:01;14.40;;;13.20;;
12768;SDS011;6448;48.916;8.990;2022-12-11T06:19:03;14.77;;;13.48;;
12768;SDS011;6448;48.916;8.990;2022-12-11T06:20:05;15.20;;;13.95;;